Time;durP1;ratioP1;P1;durP2;ratioP2;P2;SDS_P1;SDS_P2;PMS_P1;PMS_P2;Temp;Humidity;BMP_temperature;BMP_pressure;BME280_temperature;BME280_humidity;BME280_pressure;Samples;Min_cycle;Max_cycle;Signal;HPM_P1;HPM_P2
2022/04/22 00:03:40;;;;;;;3.22;2.00;;;18.10;59.90;;;;;;10461302;28;20036;-57
2022/04/22 00:08:41;;;;;;;2.70;1.70;;;18.10;60.00;;;;;;10460898;28;20452;-58
2022/04/22 00:13:43;;;;;;;2.28;1.42;;;18.10;59.80;;;;;;10461730;28;20115;-55
2022/04/22 00:18:44;;;;;;;3.00;1.77;;;18.10;59.90;;;;;;10461427;28;20075;-57
2022/04/22 00:23:45;;;;;;;3.40;1.60;;;18.10;59.90;;;;;;10469876;28;20040;-57
2022/04/22 00:28:46;;;;;;;2.80;2.08;;;18.10;59.90;;;;;;10461362;28;20032;-57
2022/04/22 00:33:46;;;;;;;4.80;2.05;;;18.10;59.80;;;;;;10460945;28;20057;-57
2022/04/22 00:38:47;;;;;;;3.08;1.20;;;18.10;59.80;;;;;;10460492;28;20075;-57
2022/04/22 00:43:50;;;;;;;2.45;1.48;;;18.10;59.70;;;;;;10460529;28;20499;-55
2022/04/22 00:48:50;;;;;;;4.32;1.73;;;18.00;59.70;;;;;;10460609;28;20029;-57
2022/04/22 00:53:52;;;;;;;3.05;1.67;;;18.00;59.60;;;;;;10460330;28;20136;-57
2022/04/22 00:58:53;;;;;;;2.30;1.52;;;18.00;59.60;;;;;;10459714;28;20116;-57
2022/04/22 01:14:33;;;;;;;6.15;1.83;;;18.00;59.60;;;;;;10458373;28;20037;-57
2022/04/22 01:19:34;;;;;;;3.05;1.60;;;18.00;59.60;;;;;;10459223;28;20029;-57
2022/04/22 01:24:36;;;;;;;3.42;1.60;;;18.00;59.60;;;;;;10468936;28;20415;-57
2022/04/22 01:29:37;;;;;;;3.17;1.67;;;18.00;59.60;;;;;;10459049;28;20029;-57
2022/04/22 01:34:38;;;;;;;2.17;1.40;;;18.00;59.70;;;;;;10458706;28;20037;-57
2022/04/22 01:39:39;;;;;;;3.15;1.85;;;18.00;59.80;;;;;;10458560;28;20128;-58
2022/04/22 01:44:40;;;;;;;1.90;1.30;;;18.00;59.80;;;;;;10457870;28;20037;-58
2022/04/22 01:49:41;;;;;;;2.75;1.85;;;17.90;59.70;;;;;;10458223;28;20100;-57
2022/04/22 01:54:42;;;;;;;1.50;1.20;;;17.90;59.80;;;;;;10457751;28;20037;-58
2022/04/22 01:59:44;;;;;;;2.90;1.27;;;18.00;59.90;;;;;;10457928;28;20493;-57
2022/04/22 02:04:45;;;;;;;2.58;1.60;;;17.90;59.80;;;;;;10457404;28;20037;-57
2022/04/22 02:09:46;;;;;;;2.58;1.40;;;17.90;59.80;;;;;;10457243;28;20048;-57
2022/04/22 02:14:47;;;;;;;2.88;1.63;;;17.90;59.80;;;;;;10457401;28;20032;-57
2022/04/22 02:19:47;;;;;;;2.22;1.38;;;17.90;59.80;;;;;;10456719;28;20053;-57
2022/04/22 02:24:49;;;;;;;3.63;1.85;;;17.90;59.70;;;;;;10466432;28;20053;-57
2022/04/22 02:29:49;;;;;;;2.58;1.65;;;17.90;59.80;;;;;;10456071;28;20358;-57
2022/04/22 02:34:50;;;;;;;1.75;1.23;;;17.90;59.70;;;;;;10456406;28;20115;-56
2022/04/22 02:39:51;;;;;;;2.22;1.60;;;17.90;59.70;;;;;;10455942;28;20040;-56
2022/04/22 02:50:10;;;;;;;3.30;1.87;;;17.90;59.90;;;;;;10456411;28;20037;-58
2022/04/22 02:55:11;;;;;;;2.22;1.52;;;17.90;59.80;;;;;;10455902;28;20033;-58
2022/04/22 03:00:13;;;;;;;1.88;1.20;;;17.90;59.80;;;;;;10454794;28;20021;-55
2022/04/22 03:05:14;;;;;;;3.28;1.90;;;17.80;59.70;;;;;;10455320;28;20041;-57
2022/04/22 03:10:15;;;;;;;2.55;1.40;;;17.80;59.70;;;;;;10453719;28;20040;-57
2022/04/22 03:15:16;;;;;;;3.50;1.60;;;17.80;59.70;;;;;;10453679;28;20048;-56
2022/04/22 03:20:16;;;;;;;2.55;1.35;;;17.80;59.80;;;;;;10454483;28;20036;-56
2022/04/22 03:25:20;;;;;;;2.92;1.77;;;17.80;59.80;;;;;;10465095;28;20104;-56
2022/04/22 03:30:20;;;;;;;2.28;1.95;;;17.80;59.80;;;;;;10452791;28;20520;-57
2022/04/22 03:35:21;;;;;;;2.53;1.88;;;17.80;59.80;;;;;;10452490;28;20111;-57
2022/04/22 03:40:23;;;;;;;2.97;1.65;;;17.80;59.80;;;;;;10453967;28;20056;-57
2022/04/22 03:45:23;;;;;;;3.60;1.75;;;17.80;59.80;;;;;;10454209;28;20486;-57
2022/04/22 03:50:28;;;;;;;2.17;1.48;;;17.80;59.70;;;;;;10454238;28;20049;-57
2022/04/22 03:55:29;;;;;;;2.70;1.85;;;17.80;59.70;;;;;;10454479;28;20029;-57
2022/04/22 04:00:32;;;;;;;2.45;1.63;;;17.80;59.70;;;;;;10453777;28;20037;-54
2022/04/22 04:05:33;;;;;;;2.83;1.50;;;17.80;59.70;;;;;;10453269;28;20033;-57
2022/04/22 04:15:58;;;;;;;3.43;1.63;;;17.70;59.70;;;;;;10451122;28;20033;-57
2022/04/22 04:26:24;;;;;;;3.92;1.70;;;17.70;59.70;;;;;;10452120;28;20076;-56
2022/04/22 04:31:25;;;;;;;2.85;2.17;;;17.70;59.70;;;;;;10466927;28;20036;-57
2022/04/22 04:36:25;;;;;;;2.78;1.58;;;17.70;59.80;;;;;;10451458;28;20524;-57
2022/04/22 04:41:26;;;;;;;2.65;1.77;;;17.70;59.70;;;;;;10452838;28;20068;-55
2022/04/22 04:46:27;;;;;;;2.20;1.60;;;17.70;59.80;;;;;;10465944;28;20040;-56
2022/04/22 04:51:28;;;;;;;3.55;1.60;;;17.70;59.80;;;;;;10479420;28;20535;-56
2022/04/22 04:56:29;;;;;;;4.22;1.85;;;17.70;60.70;;;;;;10472289;28;20032;-57
2022/04/22 05:01:29;;;;;;;7.40;1.98;;;17.80;60.80;;;;;;10460410;28;20056;-56
2022/04/22 05:06:30;;;;;;;6.00;2.00;;;18.00;61.30;;;;;;10452660;28;20112;-55
2022/04/22 05:11:31;;;;;;;2.50;1.50;;;18.00;61.30;;;;;;10455391;28;20033;-54
2022/04/22 05:16:32;;;;;;;6.32;2.40;;;17.90;61.50;;;;;;10459802;28;20029;-55
2022/04/22 05:21:32;;;;;;;13.00;3.03;;;17.90;62.30;;;;;;10467672;28;20413;-56
2022/04/22 05:26:33;;;;;;;9.55;2.55;;;17.90;61.70;;;;;;10461019;28;20139;-58
2022/04/22 05:36:53;;;;;;;14.90;3.15;;;17.90;61.90;;;;;;10474078;28;20040;-57
2022/04/22 05:41:54;;;;;;;15.18;2.55;;;17.90;62.20;;;;;;10467904;28;20112;-58
2022/04/22 05:46:55;;;;;;;16.92;3.72;;;17.90;62.10;;;;;;10473851;28;20052;-57
2022/04/22 05:51:55;;;;;;;10.95;2.75;;;17.80;62.40;;;;;;10466989;28;20041;-57
2022/04/22 05:56:56;;;;;;;11.10;3.50;;;17.80;62.20;;;;;;10455196;28;20493;-59
2022/04/22 06:01:57;;;;;;;12.95;3.10;;;17.80;62.20;;;;;;10457250;28;20056;-58
2022/04/22 06:06:57;;;;;;;25.85;4.20;;;17.90;62.80;;;;;;10437488;28;20057;-56
2022/04/22 06:11:58;;;;;;;24.52;4.57;;;17.90;62.20;;;;;;10469002;28;20175;-57
2022/04/22 06:16:58;;;;;;;29.25;5.15;;;17.90;62.70;;;;;;10452941;28;20457;-59
2022/04/22 06:21:59;;;;;;;15.52;4.05;;;17.90;62.60;;;;;;10462021;28;20056;-56
2022/04/22 06:27:00;;;;;;;7.18;3.25;;;17.90;62.60;;;;;;10452189;28;20083;-58
2022/04/22 06:32:02;;;;;;;6.35;1.95;;;17.80;62.50;;;;;;10454260;28;20076;-58
2022/04/22 06:37:02;;;;;;;6.10;2.65;;;17.80;62.20;;;;;;10455475;28;20492;-58
2022/04/22 06:47:23;;;;;;;;;;;17.80;62.00;;;;;;10452844;28;20041;-58
2022/04/22 06:52:25;;;;;;;12.50;3.42;;;17.80;62.00;;;;;;10470948;28;19920;-59
2022/04/22 06:57:27;;;;;;;15.02;3.25;;;17.80;62.30;;;;;;10442707;28;20079;-59
2022/04/22 07:02:29;;;;;;;10.60;3.90;;;17.80;62.20;;;;;;10425633;28;20032;-56
2022/04/22 07:07:30;;;;;;;20.10;4.20;;;17.80;62.30;;;;;;10454717;28;20029;-56
2022/04/22 07:12:32;;;;;;;16.33;3.83;;;17.80;62.40;;;;;;10453913;28;20039;-55
2022/04/22 07:17:35;;;;;;;12.80;3.38;;;17.80;62.10;;;;;;10452070;28;20373;-56
2022/04/22 07:22:37;;;;;;;13.95;4.03;;;17.80;62.10;;;;;;10463036;28;20024;-56
2022/04/22 07:27:41;;;;;;;8.57;3.17;;;17.80;62.10;;;;;;10453144;28;20029;-57
2022/04/22 07:32:45;;;;;;;9.68;3.60;;;17.80;62.10;;;;;;10452181;28;20145;-55
2022/04/22 07:37:50;;;;;;;11.85;3.40;;;17.80;62.00;;;;;;10451753;28;20045;-57
2022/04/22 07:48:12;;;;;;;10.82;3.00;;;17.80;61.90;;;;;;10452869;28;20120;-56
2022/04/22 07:53:21;;;;;;;8.43;3.67;;;17.80;61.90;;;;;;10450851;28;20128;-55
2022/04/22 07:58:22;;;;;;;18.87;3.83;;;17.90;61.90;;;;;;10451237;28;20032;-58
2022/04/22 08:03:23;;;;;;;10.88;3.13;;;17.90;62.20;;;;;;10450321;28;20057;-56
2022/04/22 08:08:28;;;;;;;10.27;2.70;;;17.90;61.90;;;;;;10450364;28;20079;-54
2022/04/22 08:13:29;;;;;;;9.57;3.17;;;17.90;61.80;;;;;;10449325;28;20032;-55
2022/04/22 08:18:30;;;;;;;9.85;2.95;;;17.80;61.80;;;;;;10450682;28;20404;-56
2022/04/22 08:23:30;;;;;;;5.50;2.38;;;17.90;61.80;;;;;;10467300;28;20049;-55
2022/04/22 08:28:31;;;;;;;7.07;3.08;;;17.90;61.80;;;;;;10460309;28;20113;-55
2022/04/22 08:33:32;;;;;;;5.05;3.08;;;17.90;61.80;;;;;;10459531;28;20068;-55
2022/04/22 08:38:32;;;;;;;10.05;3.28;;;17.90;61.70;;;;;;10460485;28;20757;-56
2022/04/22 08:43:34;;;;;;;9.10;3.63;;;17.90;61.60;;;;;;10458003;28;20108;-57
2022/04/22 08:53:56;;;;;;;12.32;3.40;;;17.90;61.90;;;;;;10458133;28;20033;-54
2022/04/22 08:58:57;;;;;;;13.07;3.45;;;18.00;62.00;;;;;;10468001;28;20039;-55
2022/04/22 09:03:58;;;;;;;31.65;5.20;;;18.00;62.10;;;;;;10473920;28;20059;-55
2022/04/22 09:08:59;;;;;;;24.15;5.05;;;18.00;62.90;;;;;;10459039;28;20493;-56
2022/04/22 09:14:02;;;;;;;19.92;5.15;;;18.00;62.90;;;;;;10457394;28;20056;-57
2022/04/22 09:19:03;;;;;;;13.95;4.45;;;18.10;63.20;;;;;;10457323;28;20025;-56
2022/04/22 09:24:14;;;;;;;11.70;4.10;;;18.10;62.90;;;;;;10467952;28;20389;-56
2022/04/22 09:29:15;;;;;;;13.05;5.22;;;18.00;62.70;;;;;;10457554;28;20033;-57
2022/04/22 09:34:31;;;;;;;12.10;3.85;;;18.00;62.60;;;;;;10456129;28;20408;-56
2022/04/22 09:44:52;;;;;;;14.67;4.93;;;18.10;62.40;;;;;;10457129;28;20033;-57
2022/04/22 09:49:54;;;;;;;10.88;3.75;;;18.10;62.20;;;;;;10454983;28;20029;-57
2022/04/22 09:54:57;;;;;;;12.32;3.25;;;18.10;62.20;;;;;;10457229;28;20345;-56
2022/04/22 09:59:58;;;;;;;12.05;3.53;;;18.10;62.20;;;;;;10456503;28;20029;-56
2022/04/22 10:04:58;;;;;;;9.10;3.15;;;18.10;62.00;;;;;;10454917;28;20492;-56
2022/04/22 10:10:03;;;;;;;9.95;3.22;;;18.10;61.90;;;;;;10455152;28;20049;-57
2022/04/22 10:15:08;;;;;;;7.07;2.88;;;18.10;61.80;;;;;;10454931;28;20518;-55
2022/04/22 10:20:10;;;;;;;11.63;3.60;;;18.10;61.80;;;;;;10472396;28;20481;-55
2022/04/22 10:25:10;;;;;;;37.88;7.72;;;18.10;61.50;;;;;;10467074;28;20108;-55
2022/04/22 10:30:13;;;;;;;23.92;5.65;;;18.10;61.90;;;;;;10438820;28;20045;-52
2022/04/22 10:35:14;;;;;;;32.50;5.22;;;18.10;62.00;;;;;;10454699;28;20040;-54
2022/04/22 10:40:24;;;;;;;31.17;4.82;;;18.20;62.30;;;;;;10456607;28;20371;-56
2022/04/22 10:51:07;;;;;;;;;;;18.30;63.90;;;;;;10456408;28;20120;-54
2022/04/22 10:56:25;;;;;;;15.10;5.07;;;18.30;62.30;;;;;;10455161;28;19915;-53
2022/04/22 11:01:31;;;;;;;20.40;5.18;;;18.30;62.30;;;;;;10453436;28;20099;-54
2022/04/22 11:06:34;;;;;;;16.02;4.57;;;18.30;62.20;;;;;;10453830;28;20068;-56
2022/04/22 11:11:40;;;;;;;21.17;5.32;;;18.30;62.40;;;;;;10454980;28;20044;-55
2022/04/22 11:16:41;;;;;;;11.85;4.00;;;18.40;62.50;;;;;;10453223;28;20036;-54
2022/04/22 11:21:42;;;;;;;17.58;4.43;;;18.40;62.20;;;;;;10462107;28;20472;-53
2022/04/22 11:26:44;;;;;;;16.00;4.57;;;18.40;61.90;;;;;;10470394;28;20028;-55
2022/04/22 11:32:05;;;;;;;15.23;4.68;;;18.40;62.00;;;;;;10453928;28;20072;-56
2022/04/22 11:37:22;;;;;;;16.48;4.05;;;18.40;61.80;;;;;;10453698;28;20102;-54
2022/04/22 11:42:23;;;;;;;15.27;3.67;;;18.40;61.60;;;;;;10452552;28;20068;-55
2022/04/22 11:47:23;;;;;;;9.35;3.92;;;18.40;61.30;;;;;;10452788;28;20037;-53
2022/04/22 11:52:26;;;;;;;9.30;3.30;;;18.40;61.00;;;;;;10467745;28;20041;-55
2022/04/22 11:57:33;;;;;;;13.35;3.75;;;18.40;61.20;;;;;;10450761;28;20103;-55
2022/04/22 12:08:13;;;;;;;16.83;4.50;;;18.40;61.20;;;;;;10453324;28;20198;-53
2022/04/22 12:13:15;;;;;;;12.30;3.38;;;18.40;60.50;;;;;;10452100;28;20040;-55
2022/04/22 12:18:36;;;;;;;14.00;4.15;;;18.50;60.40;;;;;;10453132;28;20385;-54
2022/04/22 12:23:44;;;;;;;12.77;4.43;;;18.50;60.00;;;;;;10453752;28;20125;-54
2022/04/22 12:29:11;;;;;;;14.48;4.93;;;18.50;60.00;;;;;;10452796;28;20029;-53
2022/04/22 12:34:34;;;;;;;11.60;3.75;;;18.50;59.60;;;;;;10451658;28;20056;-53
2022/04/22 12:39:39;;;;;;;15.07;3.38;;;18.40;59.40;;;;;;10451887;28;20025;-53
2022/04/22 12:44:39;;;;;;;15.88;4.43;;;18.40;59.40;;;;;;10451074;28;20044;-54
2022/04/22 12:55:11;;;;;;;12.07;5.03;;;18.60;59.00;;;;;;10451545;28;20485;-54
2022/04/22 13:00:19;;;;;;;15.82;3.40;;;18.70;58.80;;;;;;10450954;28;20040;-51
2022/04/22 13:05:22;;;;;;;5.00;2.90;;;18.70;58.70;;;;;;10451059;28;20174;-53
2022/04/22 13:10:23;;;;;;;11.95;4.65;;;18.70;58.40;;;;;;10454417;28;20029;-55
2022/04/22 13:15:24;;;;;;;24.17;5.95;;;18.60;58.50;;;;;;10421718;28;20029;-54
2022/04/22 13:20:25;;;;;;;27.38;5.75;;;18.60;58.90;;;;;;10451533;28;20033;-55
2022/04/22 13:25:25;;;;;;;16.23;4.85;;;18.70;58.80;;;;;;10457587;28;20465;-54
2022/04/22 13:30:27;;;;;;;22.77;5.60;;;18.70;59.00;;;;;;10455396;28;20112;-55
2022/04/22 13:35:28;;;;;;;20.75;4.85;;;18.70;59.10;;;;;;10456321;28;20435;-55
2022/04/22 13:40:29;;;;;;;16.50;4.57;;;18.60;59.20;;;;;;10457381;28;20040;-55
2022/04/22 13:56:08;;;;;;;21.30;4.83;;;18.60;59.90;;;;;;10449037;28;20076;-56
2022/04/22 14:01:08;;;;;;;22.00;6.38;;;18.70;60.30;;;;;;10415456;28;20037;-56
2022/04/22 14:06:09;;;;;;;35.35;6.13;;;18.70;60.20;;;;;;10427020;28;20124;-54
2022/04/22 14:11:10;;;;;;;24.85;6.03;;;18.70;60.00;;;;;;10457939;28;20500;-55
2022/04/22 14:16:12;;;;;;;23.15;5.72;;;18.70;59.80;;;;;;10457634;28;20037;-55
2022/04/22 14:21:12;;;;;;;26.88;6.65;;;18.60;59.60;;;;;;10463423;28;20074;-55
2022/04/22 14:26:13;;;;;;;16.35;4.90;;;18.50;59.70;;;;;;10497905;28;20078;-55
2022/04/22 14:31:14;;;;;;;19.27;4.97;;;18.50;59.80;;;;;;10497876;28;20127;-55
2022/04/22 14:36:15;;;;;;;16.38;5.07;;;18.50;59.70;;;;;;10497979;28;20440;-55
2022/04/22 14:41:15;;;;;;;13.55;4.80;;;18.40;59.60;;;;;;10497640;28;20667;-54
2022/04/22 14:46:16;;;;;;;11.85;4.40;;;18.40;59.60;;;;;;10497391;28;20028;-55
2022/04/22 14:51:17;;;;;;;23.92;4.90;;;18.40;59.60;;;;;;10470907;28;20108;-56
2022/04/22 14:56:18;;;;;;;20.67;5.25;;;18.40;59.20;;;;;;10455884;28;20037;-55
2022/04/22 15:01:18;;;;;;;20.90;6.15;;;18.50;59.50;;;;;;10456081;28;20044;-56
2022/04/22 15:06:19;;;;;;;10.95;4.25;;;18.50;58.80;;;;;;10454540;28;20477;-52
2022/04/22 15:11:20;;;;;;;13.90;4.07;;;18.50;58.10;;;;;;10453945;28;20116;-54
2022/04/22 15:16:23;;;;;;;17.83;3.67;;;18.50;57.90;;;;;;10470523;28;20033;-54
2022/04/22 15:26:44;;;;;;;15.60;4.00;;;18.50;57.30;;;;;;10496408;28;20028;-54
2022/04/22 15:31:45;;;;;;;15.23;3.67;;;18.50;57.40;;;;;;10471244;28;20109;-54
2022/04/22 15:36:47;;;;;;;14.45;3.15;;;18.50;57.50;;;;;;10453946;28;20083;-56
2022/04/22 15:41:48;;;;;;;9.15;3.08;;;18.50;57.30;;;;;;10452990;28;20036;-56
2022/04/22 15:46:48;;;;;;;8.82;2.92;;;18.50;57.70;;;;;;10453962;28;20025;-54
2022/04/22 15:51:49;;;;;;;7.63;3.08;;;18.50;58.00;;;;;;10453510;28;20052;-55
2022/04/22 15:56:50;;;;;;;10.40;2.92;;;18.50;58.20;;;;;;10454299;28;20450;-55
2022/04/22 16:01:51;;;;;;;12.18;3.15;;;18.50;58.80;;;;;;10453189;28;20040;-55
2022/04/22 16:06:53;;;;;;;14.15;3.85;;;18.50;59.00;;;;;;10453514;28;20035;-55
2022/04/22 16:17:13;;;;;;;18.60;3.80;;;18.40;59.30;;;;;;10453310;28;20409;-53
2022/04/22 16:22:14;;;;;;;29.10;5.18;;;18.50;59.60;;;;;;10470238;28;20025;-54
2022/04/22 16:27:15;;;;;;;23.55;6.22;;;18.60;60.10;;;;;;10477476;28;20037;-51
2022/04/22 16:32:16;;;;;;;23.52;5.82;;;18.60;60.10;;;;;;10464777;28;20136;-53
2022/04/22 16:37:16;;;;;;;25.30;5.75;;;18.80;60.10;;;;;;10452629;28;20103;-55
2022/04/22 16:42:18;;;;;;;29.10;7.22;;;19.00;60.00;;;;;;10454855;28;20548;-54
2022/04/22 16:47:18;;;;;;;18.58;4.97;;;19.30;62.70;;;;;;10459830;28;20036;-52
2022/04/22 16:52:19;;;;;;;30.00;5.93;;;19.40;62.50;;;;;;10461105;28;20068;-56
2022/04/22 16:57:24;;;;;;;13.45;4.38;;;19.50;62.70;;;;;;10460811;28;20074;-54
2022/04/22 17:02:26;;;;;;;14.20;5.15;;;19.60;62.30;;;;;;10460693;28;20033;-55
2022/04/22 17:07:27;;;;;;;16.45;5.43;;;19.40;62.70;;;;;;10474404;28;20040;-53
2022/04/22 17:12:27;;;;;;;15.15;4.20;;;19.30;62.70;;;;;;10458918;28;20112;-55
2022/04/22 17:22:48;;;;;;;18.83;6.22;;;19.10;62.70;;;;;;10480779;28;20465;-56
2022/04/22 17:27:49;;;;;;;16.27;4.72;;;18.90;63.00;;;;;;10462089;28;20104;-56
2022/04/22 17:32:50;;;;;;;14.77;4.82;;;18.90;62.30;;;;;;10459490;28;20547;-57
2022/04/22 17:37:51;;;;;;;12.45;3.88;;;18.90;62.50;;;;;;10458056;28;20131;-55
2022/04/22 17:42:52;;;;;;;10.77;4.00;;;18.90;62.40;;;;;;10458219;28;20115;-56
2022/04/22 17:47:52;;;;;;;10.80;4.25;;;18.80;62.20;;;;;;10459597;28;20033;-55
2022/04/22 17:52:54;;;;;;;6.65;3.30;;;18.80;62.00;;;;;;10456861;28;20037;-56
2022/04/22 17:57:55;;;;;;;10.32;3.83;;;18.80;61.60;;;;;;10454032;28;20549;-55
2022/04/22 18:02:55;;;;;;;18.00;4.78;;;18.70;61.60;;;;;;10442164;28;20033;-56
2022/04/22 18:07:58;;;;;;;14.10;4.22;;;18.70;61.80;;;;;;10457165;28;20047;-56
2022/04/22 18:13:00;;;;;;;20.15;4.65;;;18.60;61.70;;;;;;10453751;28;20511;-56
2022/04/22 18:18:02;;;;;;;8.65;3.78;;;18.60;61.80;;;;;;10456393;28;20075;-57
2022/04/22 18:23:03;;;;;;;7.35;4.55;;;18.60;61.70;;;;;;10461033;28;20124;-57
2022/04/22 18:28:05;;;;;;;9.43;3.88;;;18.50;61.50;;;;;;10455492;28;20451;-57
2022/04/22 18:33:06;;;;;;;11.68;3.40;;;18.60;61.60;;;;;;10455897;28;20095;-56
2022/04/22 18:38:07;;;;;;;11.02;3.75;;;18.50;61.40;;;;;;10455761;28;20736;-56
2022/04/22 18:43:08;;;;;;;8.18;4.28;;;18.50;61.30;;;;;;10456691;28;20400;-57
2022/04/22 18:48:10;;;;;;;7.38;4.03;;;18.50;61.30;;;;;;10456337;28;20057;-56
2022/04/22 18:53:11;;;;;;;10.00;4.55;;;18.50;61.20;;;;;;10456564;28;20049;-56
2022/04/22 18:58:12;;;;;;;6.93;3.38;;;18.50;61.20;;;;;;10453494;28;20029;-57
2022/04/22 19:03:13;;;;;;;8.45;4.32;;;18.50;61.10;;;;;;10453959;28;20080;-56
2022/04/22 19:08:16;;;;;;;7.20;3.83;;;18.50;61.00;;;;;;10455959;28;20053;-55
2022/04/22 19:13:17;;;;;;;7.82;4.47;;;18.50;61.00;;;;;;10454918;28;20024;-56
2022/04/22 19:18:19;;;;;;;6.70;3.25;;;18.40;60.80;;;;;;10470300;28;20112;-56
2022/04/22 19:23:20;;;;;;;6.25;3.60;;;18.40;60.80;;;;;;10476463;28;20090;-56
2022/04/22 19:28:20;;;;;;;11.70;4.32;;;18.40;60.80;;;;;;10454979;28;20530;-57
2022/04/22 19:33:21;;;;;;;6.72;3.33;;;18.40;60.70;;;;;;10452510;28;20091;-55
2022/04/22 19:43:41;;;;;;;5.97;2.92;;;18.40;60.60;;;;;;10465627;28;20072;-56
2022/04/22 19:48:42;;;;;;;10.45;3.17;;;18.40;60.50;;;;;;10453732;28;20049;-57
2022/04/22 19:53:43;;;;;;;5.15;3.53;;;18.40;60.50;;;;;;10454357;28;20025;-56
2022/04/22 19:58:46;;;;;;;5.18;3.35;;;18.40;60.50;;;;;;10454403;28;20036;-57
2022/04/22 20:03:47;;;;;;;4.65;2.90;;;18.40;60.50;;;;;;10487955;28;20032;-55
2022/04/22 20:08:48;;;;;;;5.28;3.58;;;18.40;60.40;;;;;;10451729;28;20040;-56
2022/04/22 20:13:53;;;;;;;3.88;2.97;;;18.40;60.40;;;;;;10453715;28;20166;-56
2022/04/22 20:18:53;;;;;;;4.53;3.00;;;18.40;60.40;;;;;;10474267;28;20481;-56
2022/04/22 20:23:54;;;;;;;3.83;2.90;;;18.40;60.40;;;;;;10474426;28;20057;-57
2022/04/22 20:28:55;;;;;;;2.67;2.08;;;18.40;60.30;;;;;;10460918;28;20024;-56
2022/04/22 20:33:56;;;;;;;7.75;3.50;;;18.40;60.40;;;;;;10461835;28;20081;-56
2022/04/22 20:44:17;;;;;;;3.30;2.13;;;18.40;60.10;;;;;;10461233;28;20037;-56
2022/04/22 20:49:17;;;;;;;3.42;2.20;;;18.30;60.20;;;;;;10461714;28;20018;-55
2022/04/22 20:54:18;;;;;;;4.05;1.98;;;18.30;60.30;;;;;;10461055;28;20120;-56
2022/04/22 20:59:19;;;;;;;4.30;3.10;;;18.30;60.30;;;;;;10461025;28;20072;-56
2022/04/22 21:04:19;;;;;;;4.70;2.58;;;18.30;60.10;;;;;;10460235;28;20075;-56
2022/04/22 21:09:20;;;;;;;6.28;2.75;;;18.30;60.00;;;;;;10459153;28;20036;-55
2022/04/22 21:14:21;;;;;;;5.78;2.90;;;18.30;59.90;;;;;;10460290;28;20485;-56
2022/04/22 21:19:21;;;;;;;2.95;2.17;;;18.30;60.00;;;;;;10460335;28;20100;-55
2022/04/22 21:24:22;;;;;;;5.03;2.65;;;18.30;60.00;;;;;;10493853;28;20032;-56
2022/04/22 21:29:23;;;;;;;4.63;2.33;;;18.30;60.00;;;;;;10481794;28;20060;-56
2022/04/22 21:34:25;;;;;;;3.72;3.10;;;18.30;59.90;;;;;;10459100;28;20065;-56
2022/04/22 21:39:25;;;;;;;3.42;3.03;;;18.30;60.10;;;;;;10459558;28;20389;-56
2022/04/22 21:44:26;;;;;;;3.80;2.90;;;18.30;59.80;;;;;;10458783;28;20071;-56
2022/04/22 21:49:27;;;;;;;3.63;2.63;;;18.20;59.80;;;;;;10459068;28;20456;-56
2022/04/22 21:54:28;;;;;;;3.75;2.70;;;18.20;59.60;;;;;;10458738;28;20029;-56
2022/04/22 21:59:28;;;;;;;3.70;2.50;;;18.20;59.60;;;;;;10458704;28;20473;-56
2022/04/22 22:04:29;;;;;;;3.92;2.42;;;18.20;59.50;;;;;;10457943;28;20037;-56
2022/04/22 22:09:30;;;;;;;3.75;2.42;;;18.20;59.50;;;;;;10458416;28;20057;-56
2022/04/22 22:14:33;;;;;;;4.28;3.17;;;18.20;59.50;;;;;;10457312;28;20032;-56
2022/04/22 22:19:34;;;;;;;3.60;2.50;;;18.20;59.40;;;;;;10458004;28;20021;-56
2022/04/22 22:24:35;;;;;;;3.08;2.33;;;18.20;59.40;;;;;;10466628;28;20033;-56
2022/04/22 22:29:36;;;;;;;2.70;2.03;;;18.20;59.40;;;;;;10457521;28;20031;-56
2022/04/22 22:34:36;;;;;;;3.00;2.38;;;18.10;59.20;;;;;;10457116;28;20151;-56
2022/04/22 22:39:37;;;;;;;3.20;2.40;;;18.20;59.30;;;;;;10456417;28;20048;-56
2022/04/22 22:44:38;;;;;;;3.17;2.42;;;18.10;59.30;;;;;;10454995;28;20091;-56
2022/04/22 22:49:38;;;;;;;3.15;2.25;;;18.10;59.30;;;;;;10456917;28;20079;-56
2022/04/22 22:54:39;;;;;;;3.63;2.33;;;18.10;59.40;;;;;;10456272;28;20090;-56
2022/04/22 22:59:40;;;;;;;2.92;2.20;;;18.20;59.40;;;;;;10456131;28;20083;-56
2022/04/22 23:04:40;;;;;;;2.80;2.00;;;18.10;59.30;;;;;;10455709;28;20039;-56
2022/04/22 23:09:41;;;;;;;2.90;2.05;;;18.10;59.30;;;;;;10456008;28;20112;-54
2022/04/22 23:14:45;;;;;;;4.22;2.70;;;18.10;59.20;;;;;;10455460;28;20075;-55
2022/04/22 23:19:46;;;;;;;3.50;2.90;;;18.10;59.20;;;;;;10455630;28;20035;-56
2022/04/22 23:24:47;;;;;;;3.53;2.40;;;18.10;59.10;;;;;;10485241;28;20025;-54
2022/04/22 23:29:47;;;;;;;2.80;2.10;;;18.10;59.10;;;;;;10454931;28;20508;-56
2022/04/22 23:34:48;;;;;;;3.70;2.80;;;18.10;59.10;;;;;;10454902;28;20044;-56
2022/04/22 23:39:49;;;;;;;3.55;2.70;;;18.10;59.10;;;;;;10454629;28;20484;-55
2022/04/22 23:44:51;;;;;;;3.25;2.30;;;18.00;59.00;;;;;;10454822;28;20107;-55
2022/04/22 23:49:52;;;;;;;4.63;2.72;;;18.00;59.00;;;;;;10454520;28;20060;-56
2022/04/22 23:54:53;;;;;;;3.63;3.03;;;18.00;59.70;;;;;;10453520;28;20064;-56
2022/04/22 23:59:53;;;;;;;3.17;2.22;;;18.00;59.00;;;;;;10428431;28;20124;-56
